createdAt,value
2023-05-11T00:00:24.064Z,20.35
2023-05-11T00:01:24.061Z,13.47
2023-05-11T00:02:24.233Z,3.50
2023-05-11T00:03:24.699Z,25.00
2023-05-11T00:04:24.111Z,26.32
2023-05-11T00:05:24.080Z,25.00
2023-05-11T00:06:24.077Z,28.92
2023-05-11T00:07:24.142Z,26.00
2023-05-11T00:08:24.208Z,36.12
2023-05-11T00:09:24.272Z,35.99
2023-05-11T00:10:24.339Z,14.03
2023-05-11T00:11:24.435Z,0.00
2023-05-11T00:12:24.467Z,9.48
2023-05-11T00:13:24.540Z,29.25
2023-05-11T00:14:24.608Z,46.07
2023-05-11T00:15:24.702Z,55.09
2023-05-11T00:16:24.781Z,58.14
2023-05-11T00:17:24.826Z,46.26
2023-05-11T00:18:24.874Z,26.98
2023-05-11T00:19:24.940Z,0.00
2023-05-11T00:20:25.008Z,0.00
2023-05-11T00:21:25.095Z,9.80
2023-05-11T00:22:25.128Z,25.00
2023-05-11T00:23:25.283Z,27.41
2023-05-11T00:24:25.359Z,25.00
2023-05-11T00:25:25.374Z,27.02
2023-05-11T00:26:25.411Z,28.92
2023-05-11T00:27:25.526Z,20.27
2023-05-11T00:28:25.564Z,18.83
2023-05-11T00:29:25.597Z,28.44
2023-05-11T00:30:25.678Z,36.53
2023-05-11T00:31:26.525Z,36.08
2023-05-11T00:32:25.771Z,25.40
2023-05-11T00:33:25.776Z,25.00
2023-05-11T00:34:25.731Z,25.00
2023-05-11T00:35:25.736Z,25.72
2023-05-11T00:36:25.730Z,25.00
2023-05-11T00:37:26.194Z,20.07
2023-05-11T00:38:25.770Z,11.57
2023-05-11T00:39:25.796Z,25.06
2023-05-11T00:40:25.749Z,25.69
2023-05-11T00:41:25.767Z,24.56
2023-05-11T00:42:25.732Z,21.80
2023-05-11T00:43:25.753Z,30.98
2023-05-11T00:44:25.728Z,44.39
2023-05-11T00:45:25.725Z,85.01
2023-05-11T00:46:25.754Z,72.46
2023-05-11T00:47:25.754Z,81.69
2023-05-11T00:48:25.725Z,78.30
2023-05-11T00:49:25.727Z,95.31
2023-05-11T00:50:25.723Z,119.16
2023-05-11T00:51:25.719Z,131.86
2023-05-11T00:52:25.745Z,147.22
2023-05-11T00:53:25.735Z,159.37
2023-05-11T00:54:25.736Z,158.36
2023-05-11T00:55:25.733Z,105.86
2023-05-11T00:56:25.814Z,37.62
2023-05-11T00:57:25.852Z,0.00
2023-05-11T00:58:25.858Z,0.00
2023-05-11T00:59:25.914Z,0.00
2023-05-11T01:00:25.881Z,0.00
2023-05-11T01:01:25.949Z,0.00
2023-05-11T01:02:26.047Z,0.00
2023-05-11T01:03:25.943Z,0.00
2023-05-11T01:04:25.945Z,0.00
2023-05-11T01:05:25.960Z,0.00
2023-05-11T01:06:25.974Z,0.00
2023-05-11T01:07:25.989Z,0.00
2023-05-11T01:08:25.991Z,0.00
2023-05-11T01:09:26.010Z,0.00
2023-05-11T01:10:26.053Z,0.00
2023-05-11T01:11:26.136Z,0.00
2023-05-11T01:12:26.060Z,5.78
2023-05-11T01:13:26.110Z,28.05
2023-05-11T01:14:26.109Z,26.14
2023-05-11T01:15:26.175Z,60.42
2023-05-11T01:16:26.152Z,105.50
2023-05-11T01:17:26.186Z,91.89
2023-05-11T01:18:26.235Z,93.54
2023-05-11T01:19:26.261Z,97.43
2023-05-11T01:20:26.286Z,98.53
2023-05-11T01:21:26.352Z,95.59
2023-05-11T01:22:26.384Z,87.59
2023-05-11T01:23:26.464Z,123.69
2023-05-11T01:24:26.518Z,156.91
2023-05-11T01:25:26.560Z,78.65
2023-05-11T01:26:26.638Z,25.56
2023-05-11T01:27:26.614Z,0.00
2023-05-11T01:28:26.674Z,0.00
2023-05-11T01:29:26.653Z,0.00
2023-05-11T01:30:26.684Z,22.27
2023-05-11T01:31:26.808Z,82.40
2023-05-11T01:32:26.841Z,157.01
2023-05-11T01:33:26.890Z,182.31
2023-05-11T01:34:26.910Z,158.21
2023-05-11T01:35:26.967Z,156.02
2023-05-11T01:36:26.994Z,171.57
2023-05-11T01:37:27.035Z,136.92
2023-05-11T01:38:27.102Z,164.89
2023-05-11T01:39:27.149Z,179.72
2023-05-11T01:40:27.125Z,217.17
2023-05-11T01:41:27.145Z,310.30
2023-05-11T01:42:27.160Z,341.86
2023-05-11T01:43:27.177Z,333.69
2023-05-11T01:44:27.187Z,306.71
2023-05-11T01:45:27.193Z,308.07
2023-05-11T01:46:27.282Z,315.83
2023-05-11T01:47:27.289Z,311.04
2023-05-11T01:48:27.220Z,290.90
2023-05-11T01:49:27.246Z,275.06
2023-05-11T01:50:27.231Z,275.15
2023-05-11T01:51:27.229Z,264.26
2023-05-11T01:52:27.255Z,250.00
2023-05-11T01:53:27.259Z,245.44
2023-05-11T01:54:27.749Z,246.04
2023-05-11T01:55:27.310Z,252.20
2023-05-11T01:56:27.360Z,263.08
2023-05-11T01:57:27.360Z,269.34
2023-05-11T01:58:27.367Z,261.74
2023-05-11T01:59:27.506Z,256.37
2023-05-11T02:00:27.433Z,256.52
2023-05-11T02:01:27.546Z,249.43
2023-05-11T02:02:27.538Z,246.88
2023-05-11T02:03:27.612Z,247.75
2023-05-11T02:04:27.490Z,239.02
2023-05-11T02:05:28.363Z,240.81
2023-05-11T02:06:27.500Z,246.39
2023-05-11T02:07:27.501Z,244.45
2023-05-11T02:08:27.509Z,237.38
2023-05-11T02:09:27.525Z,230.40
2023-05-11T02:10:27.543Z,228.91
2023-05-11T02:11:27.550Z,235.14
2023-05-11T02:12:27.576Z,239.23
2023-05-11T02:13:27.601Z,242.04
2023-05-11T02:14:27.601Z,237.59
2023-05-11T02:15:27.614Z,229.66
2023-05-11T02:16:27.652Z,226.78
2023-05-11T02:17:27.663Z,227.75
2023-05-11T02:18:27.680Z,224.50
2023-05-11T02:19:27.712Z,225.11
2023-05-11T02:20:27.706Z,217.00
2023-05-11T02:21:27.742Z,217.75
2023-05-11T02:22:27.763Z,219.79
2023-05-11T02:23:27.890Z,222.36
2023-05-11T02:24:27.795Z,225.54
2023-05-11T02:25:27.809Z,227.97
2023-05-11T02:26:27.831Z,229.04
2023-05-11T02:27:27.844Z,226.79
2023-05-11T02:28:27.864Z,230.47
2023-05-11T02:29:27.903Z,229.04
2023-05-11T02:30:27.895Z,225.39
2023-05-11T02:31:27.982Z,220.07
2023-05-11T02:32:29.068Z,218.37
2023-05-11T02:33:27.938Z,216.51
2023-05-11T02:34:28.028Z,214.74
2023-05-11T02:35:27.977Z,215.64
2023-05-11T02:36:27.969Z,219.70
2023-05-11T02:37:28.030Z,228.10
2023-05-11T02:38:28.001Z,248.35
2023-05-11T02:39:28.023Z,255.43
2023-05-11T02:40:28.044Z,258.40
2023-05-11T02:41:28.086Z,257.31
2023-05-11T02:42:28.163Z,250.66
2023-05-11T02:43:28.128Z,246.63
2023-05-11T02:44:28.180Z,232.98
2023-05-11T02:45:28.182Z,237.00
2023-05-11T02:46:28.294Z,241.53
2023-05-11T02:47:28.388Z,243.23
2023-05-11T02:48:28.337Z,245.76
2023-05-11T02:49:28.421Z,245.21
2023-05-11T02:50:28.432Z,248.64
2023-05-11T02:51:28.505Z,250.04
2023-05-11T02:52:28.518Z,247.68
2023-05-11T02:53:28.578Z,244.37
2023-05-11T02:54:28.641Z,246.09
2023-05-11T02:55:28.676Z,248.24
2023-05-11T02:56:28.722Z,250.00
2023-05-11T02:57:28.772Z,250.00
2023-05-11T02:58:28.866Z,249.99
2023-05-11T02:59:28.943Z,251.86
2023-05-11T03:00:28.995Z,251.55
2023-05-11T03:01:30.561Z,245.84
2023-05-11T03:02:29.832Z,251.56
2023-05-11T03:03:29.134Z,251.87
2023-05-11T03:04:28.997Z,251.76
2023-05-11T03:05:28.980Z,248.31
2023-05-11T03:06:29.045Z,242.73
2023-05-11T03:07:29.032Z,242.76
2023-05-11T03:08:29.011Z,241.47
2023-05-11T03:09:29.040Z,238.56
2023-05-11T03:10:29.031Z,235.02
2023-05-11T03:11:29.031Z,232.40
2023-05-11T03:12:29.046Z,233.20
2023-05-11T03:13:29.061Z,236.44
2023-05-11T03:14:29.063Z,236.37
2023-05-11T03:15:29.079Z,224.32
2023-05-11T03:16:30.099Z,217.50
2023-05-11T03:17:29.154Z,210.89
2023-05-11T03:18:29.153Z,206.62
2023-05-11T03:19:29.238Z,204.02
2023-05-11T03:20:29.260Z,202.43
2023-05-11T03:21:29.317Z,201.30
2023-05-11T03:22:29.380Z,204.67
2023-05-11T03:23:29.468Z,200.46
2023-05-11T03:24:29.577Z,193.21
2023-05-11T03:25:29.571Z,191.84
2023-05-11T03:26:29.626Z,193.14
2023-05-11T03:27:29.720Z,196.81
2023-05-11T03:28:29.817Z,194.08
2023-05-11T03:29:29.892Z,196.46
2023-05-11T03:30:29.985Z,201.08
2023-05-11T03:31:30.093Z,191.49
2023-05-11T03:32:30.159Z,188.28
2023-05-11T03:33:30.213Z,183.15
2023-05-11T03:34:30.256Z,186.47
2023-05-11T03:35:30.324Z,191.89
2023-05-11T03:36:30.368Z,196.15
2023-05-11T03:37:30.458Z,198.14
2023-05-11T03:38:30.566Z,192.97
2023-05-11T03:39:30.641Z,181.92
2023-05-11T03:40:30.687Z,175.13
2023-05-11T03:41:30.756Z,170.59
2023-05-11T03:42:30.877Z,165.06
2023-05-11T03:43:30.932Z,167.30
2023-05-11T03:44:31.043Z,169.14
2023-05-11T03:45:31.098Z,166.82
2023-05-11T03:46:31.282Z,162.17
2023-05-11T03:47:31.380Z,162.23
2023-05-11T03:48:31.357Z,167.20
2023-05-11T03:49:31.458Z,171.30
2023-05-11T03:50:31.500Z,169.38
2023-05-11T03:51:31.578Z,170.41
2023-05-11T03:52:31.612Z,178.13
2023-05-11T03:53:31.715Z,187.76
2023-05-11T03:54:31.801Z,193.32
2023-05-11T03:55:31.890Z,189.57
2023-05-11T03:56:31.951Z,192.13
2023-05-11T03:57:32.017Z,196.58
2023-05-11T03:58:32.091Z,206.32
2023-05-11T03:59:32.186Z,207.84
2023-05-11T04:00:32.250Z,200.71
2023-05-11T04:01:32.332Z,197.15
2023-05-11T04:02:32.528Z,197.47
2023-05-11T04:03:32.632Z,197.58
2023-05-11T04:04:32.635Z,199.52
2023-05-11T04:05:32.656Z,199.63
2023-05-11T04:06:32.690Z,200.82
2023-05-11T04:07:32.716Z,201.77
2023-05-11T04:08:32.755Z,198.38
2023-05-11T04:09:32.789Z,193.10
2023-05-11T04:10:32.819Z,195.95
2023-05-11T04:11:32.900Z,197.39
2023-05-11T04:12:32.882Z,198.74
2023-05-11T04:13:32.912Z,203.98
2023-05-11T04:14:32.996Z,211.11
2023-05-11T04:15:32.992Z,211.50
2023-05-11T04:16:33.194Z,220.85
2023-05-11T04:17:33.111Z,226.40
2023-05-11T04:18:33.181Z,232.74
2023-05-11T04:19:33.243Z,228.76
2023-05-11T04:20:33.296Z,222.39
2023-05-11T04:21:33.332Z,218.59
2023-05-11T04:22:33.425Z,217.38
2023-05-11T04:23:33.470Z,219.80
2023-05-11T04:24:33.603Z,221.21
2023-05-11T04:25:33.639Z,215.97
2023-05-11T04:26:33.717Z,217.58
2023-05-11T04:27:33.836Z,217.85
2023-05-11T04:28:33.901Z,213.87
2023-05-11T04:29:34.001Z,217.35
2023-05-11T04:30:34.038Z,212.74
2023-05-11T04:31:34.180Z,205.93
2023-05-11T04:32:34.250Z,199.60
2023-05-11T04:33:34.274Z,196.91
2023-05-11T04:34:34.348Z,199.79
2023-05-11T04:35:34.378Z,201.52
2023-05-11T04:36:34.448Z,208.62
2023-05-11T04:37:34.519Z,213.68
2023-05-11T04:38:34.594Z,218.37
2023-05-11T04:39:34.682Z,223.73
2023-05-11T04:40:35.137Z,235.32
2023-05-11T04:41:34.847Z,240.43
2023-05-11T04:42:34.935Z,244.92
2023-05-11T04:43:35.040Z,249.63
2023-05-11T04:44:35.097Z,250.45
2023-05-11T04:45:35.170Z,250.94
2023-05-11T04:46:35.348Z,248.85
2023-05-11T04:47:35.346Z,246.86
2023-05-11T04:48:35.434Z,246.73
2023-05-11T04:49:35.514Z,248.83
2023-05-11T04:50:35.582Z,250.64
2023-05-11T04:51:35.659Z,249.74
2023-05-11T04:52:35.746Z,249.68
2023-05-11T04:53:35.788Z,249.86
2023-05-11T04:54:35.869Z,245.16
2023-05-11T04:55:35.960Z,249.10
2023-05-11T04:56:36.035Z,246.07
2023-05-11T04:57:36.083Z,244.17
2023-05-11T04:58:36.106Z,242.76
2023-05-11T04:59:36.217Z,239.82
2023-05-11T05:00:36.201Z,236.91
2023-05-11T05:01:36.263Z,231.58
2023-05-11T05:02:36.324Z,232.70
2023-05-11T05:03:36.357Z,239.80
2023-05-11T05:04:36.602Z,241.19
2023-05-11T05:05:36.389Z,230.80
2023-05-11T05:06:36.411Z,207.16
2023-05-11T05:07:36.471Z,197.24
2023-05-11T05:09:35.542Z,181.38
2023-05-11T05:10:36.585Z,181.03
2023-05-11T05:11:36.602Z,185.26
2023-05-11T05:12:36.644Z,190.08
2023-05-11T05:13:36.640Z,198.94
2023-05-11T05:14:36.666Z,196.98
2023-05-11T05:15:36.792Z,196.97
2023-05-11T05:16:36.708Z,196.62
2023-05-11T05:17:36.760Z,183.32
2023-05-11T05:18:36.809Z,186.31
2023-05-11T05:19:36.751Z,186.77
2023-05-11T05:20:36.809Z,175.57
2023-05-11T05:21:36.793Z,167.75
2023-05-11T05:22:36.864Z,164.20
2023-05-11T05:23:36.819Z,157.70
2023-05-11T05:24:36.867Z,156.54
2023-05-11T05:25:37.304Z,153.83
2023-05-11T05:26:36.878Z,151.07
2023-05-11T05:27:37.334Z,152.36
2023-05-11T05:28:36.916Z,168.17
2023-05-11T05:29:36.939Z,182.83
2023-05-11T05:30:37.009Z,195.09
2023-05-11T05:31:37.000Z,205.22
2023-05-11T05:32:37.054Z,209.00
2023-05-11T05:33:37.029Z,206.78
2023-05-11T05:34:37.094Z,201.76
2023-05-11T05:35:37.309Z,196.47
2023-05-11T05:36:38.078Z,199.90
2023-05-11T05:37:37.079Z,221.63
2023-05-11T05:38:37.323Z,238.35
2023-05-11T05:39:37.172Z,250.93
2023-05-11T05:40:38.231Z,235.62
2023-05-11T05:41:37.289Z,228.74
2023-05-11T05:42:37.327Z,212.54
2023-05-11T05:43:37.357Z,184.57
2023-05-11T05:44:37.830Z,173.88
2023-05-11T05:45:37.826Z,175.42
2023-05-11T05:46:37.640Z,170.39
2023-05-11T05:47:37.691Z,163.75
2023-05-11T05:48:38.826Z,165.37
2023-05-11T05:49:41.315Z,173.18
2023-05-11T05:50:41.077Z,173.41
2023-05-11T05:51:37.801Z,173.54
2023-05-11T05:52:40.867Z,174.78
2023-05-11T05:53:38.758Z,173.63
2023-05-11T05:55:45.333Z,172.53
2023-05-11T05:56:37.911Z,162.52
2023-05-11T05:57:45.290Z,156.32
2023-05-11T05:58:37.892Z,138.56
2023-05-11T05:59:45.292Z,143.57
2023-05-11T06:00:39.060Z,142.82
2023-05-11T06:01:45.201Z,139.69
2023-05-11T06:03:41.649Z,149.80
2023-05-11T06:05:41.101Z,149.90
2023-05-11T06:08:08.319Z,157.22
2023-05-11T06:08:37.950Z,160.93
2023-05-11T06:10:45.361Z,163.32
2023-05-11T06:11:45.405Z,158.08
2023-05-11T06:12:41.199Z,152.47
2023-05-11T06:13:38.018Z,149.50
2023-05-11T06:14:38.095Z,150.35
2023-05-11T06:15:39.118Z,142.64
2023-05-11T06:16:38.224Z,136.88
2023-05-11T06:17:38.158Z,137.71
2023-05-11T06:18:38.243Z,140.65
2023-05-11T06:19:38.224Z,133.37
2023-05-11T11:49:35.182Z,25.00
2023-05-11T11:50:36.149Z,25.00
2023-05-11T11:51:36.161Z,25.00
2023-05-11T11:52:36.508Z,25.00
2023-05-11T11:53:36.159Z,25.00
2023-05-11T11:54:36.154Z,34.37
2023-05-11T11:55:36.149Z,59.30
2023-05-11T11:56:36.171Z,57.50
2023-05-11T11:57:36.565Z,117.81
2023-05-11T11:58:36.156Z,109.10
2023-05-11T11:59:36.157Z,82.00
2023-05-11T12:00:36.161Z,51.17
2023-05-11T12:01:36.163Z,0.00
2023-05-11T12:02:36.568Z,0.00
2023-05-11T12:03:36.359Z,0.00
2023-05-11T12:04:36.198Z,0.00
2023-05-11T12:05:36.197Z,0.00
2023-05-11T12:06:36.193Z,0.00
2023-05-11T12:07:36.506Z,28.61
2023-05-11T12:08:36.187Z,43.88
2023-05-11T12:09:36.213Z,0.00
2023-05-11T12:10:36.183Z,0.00
2023-05-11T12:11:36.174Z,0.00
2023-05-11T12:12:36.540Z,18.14
2023-05-11T12:13:36.176Z,0.93
2023-05-11T12:14:36.175Z,0.00
2023-05-11T12:15:36.210Z,1.46
2023-05-11T12:16:36.269Z,34.24
2023-05-11T12:17:36.527Z,36.76
2023-05-11T12:18:36.380Z,52.61
2023-05-11T12:19:36.302Z,110.22
2023-05-11T12:20:36.308Z,132.20
2023-05-11T12:21:36.372Z,53.64
2023-05-11T12:22:36.359Z,82.30
2023-05-11T12:23:36.516Z,133.43
2023-05-11T12:24:36.432Z,217.98
2023-05-11T12:25:36.488Z,213.38
2023-05-11T12:26:36.577Z,223.11
2023-05-11T12:27:36.660Z,252.15
2023-05-11T12:28:36.692Z,297.95
2023-05-11T12:29:36.742Z,289.27
2023-05-11T12:30:36.772Z,329.08
2023-05-11T12:31:36.864Z,349.25
2023-05-11T12:32:36.908Z,328.48
2023-05-11T12:33:36.902Z,247.16
2023-05-11T12:34:36.972Z,210.62
2023-05-11T12:35:37.094Z,205.04
2023-05-11T12:36:37.123Z,226.89
2023-05-11T12:37:37.256Z,246.03
2023-05-11T12:38:37.513Z,263.49
2023-05-11T12:39:37.216Z,281.60
2023-05-11T12:40:37.281Z,311.25
2023-05-11T12:41:37.292Z,279.55
2023-05-11T12:42:37.380Z,251.17
2023-05-11T12:43:37.751Z,331.14
2023-05-11T12:44:37.537Z,308.06
2023-05-11T12:45:37.672Z,264.38
2023-05-11T12:46:37.761Z,237.66
2023-05-11T12:47:37.901Z,243.75
2023-05-11T12:48:37.888Z,249.41
2023-05-11T12:49:37.831Z,221.99
2023-05-11T12:50:37.803Z,215.16
2023-05-11T12:51:38.027Z,221.43
2023-05-11T12:52:37.883Z,233.11
2023-05-11T12:53:37.971Z,222.29
2023-05-11T12:54:38.038Z,197.14
2023-05-11T12:55:38.081Z,192.96
2023-05-11T12:56:38.148Z,175.84
2023-05-11T12:57:38.537Z,183.38
2023-05-11T12:58:38.276Z,185.16
2023-05-11T12:59:38.378Z,202.09
2023-05-11T13:00:39.442Z,230.14
2023-05-11T13:01:38.542Z,224.22
2023-05-11T13:02:39.077Z,211.15
2023-05-11T13:03:39.126Z,211.52
2023-05-11T13:04:38.682Z,175.54
2023-05-11T13:05:38.764Z,166.95
2023-05-11T13:06:38.839Z,179.00
2023-05-11T13:07:39.026Z,147.63
2023-05-11T13:08:38.971Z,173.60
2023-05-11T13:09:39.045Z,208.37
2023-05-11T13:10:39.079Z,205.72
2023-05-11T13:11:39.131Z,179.23
2023-05-11T13:12:39.208Z,161.83
2023-05-11T13:13:39.305Z,172.37
2023-05-11T13:14:39.823Z,189.27
2023-05-11T13:15:39.426Z,190.52
2023-05-11T13:16:39.443Z,186.41
2023-05-11T13:17:39.545Z,191.47
2023-05-11T13:18:39.543Z,191.57
2023-05-11T13:19:39.523Z,178.93
2023-05-11T13:20:39.553Z,200.29
2023-05-11T13:21:39.694Z,201.10
2023-05-11T13:22:39.699Z,186.23
2023-05-11T13:23:39.713Z,188.82
2023-05-11T13:24:39.749Z,197.57
2023-05-11T13:25:39.851Z,212.19
2023-05-11T13:26:39.888Z,222.95
2023-05-11T13:27:40.009Z,208.94
2023-05-11T13:28:40.020Z,227.06
2023-05-11T13:29:40.082Z,213.54
2023-05-11T13:30:40.560Z,196.58
2023-05-11T13:31:40.255Z,193.60
2023-05-11T13:32:40.301Z,174.31
2023-05-11T13:33:40.528Z,155.25
2023-05-11T13:34:40.352Z,161.90
2023-05-11T13:35:40.338Z,176.60
2023-05-11T13:36:40.410Z,188.96
2023-05-11T13:37:40.450Z,198.14
2023-05-11T13:38:40.531Z,196.56
2023-05-11T13:39:40.573Z,185.15
2023-05-11T13:40:40.623Z,188.43
2023-05-11T13:41:40.738Z,188.23
2023-05-11T13:42:40.755Z,183.28
2023-05-11T13:43:40.832Z,191.09
2023-05-11T13:44:40.902Z,208.27
2023-05-11T13:45:40.945Z,230.58
2023-05-11T13:46:41.071Z,234.84
2023-05-11T13:47:43.170Z,236.07
2023-05-11T13:48:41.089Z,237.21
2023-05-11T13:49:41.151Z,244.81
2023-05-11T13:50:41.114Z,248.21
2023-05-11T13:51:41.145Z,272.36
2023-05-11T13:52:41.156Z,305.22
2023-05-11T13:53:41.190Z,297.60
2023-05-11T13:54:41.219Z,276.09
2023-05-11T13:55:41.258Z,254.71
2023-05-11T13:56:41.333Z,236.78
2023-05-11T13:57:41.368Z,226.07
2023-05-11T13:58:41.315Z,248.56
2023-05-11T13:59:41.328Z,255.35
2023-05-11T14:00:41.374Z,235.59
2023-05-11T14:01:41.374Z,248.16
2023-05-11T14:02:41.453Z,251.52
2023-05-11T14:03:41.460Z,255.11
2023-05-11T14:04:41.405Z,247.05
2023-05-11T14:05:41.420Z,239.94
2023-05-11T14:06:41.423Z,235.11
2023-05-11T14:07:49.188Z,216.50
2023-05-11T14:08:41.520Z,195.94
2023-05-11T14:09:41.552Z,197.36
2023-05-11T14:10:42.054Z,198.17
2023-05-11T14:11:41.600Z,214.26
2023-05-11T14:12:41.615Z,217.58
2023-05-11T14:13:42.076Z,206.68
2023-05-11T14:14:41.667Z,201.67
2023-05-11T14:15:41.690Z,201.96
2023-05-11T14:16:41.697Z,196.88
2023-05-11T14:17:41.812Z,202.66
2023-05-11T14:18:42.166Z,215.06
2023-05-11T14:19:41.780Z,218.93
2023-05-11T14:20:41.964Z,210.77
2023-05-11T14:21:41.755Z,218.31
2023-05-11T14:22:41.812Z,227.92
2023-05-11T14:23:49.982Z,226.07
2023-05-11T14:24:42.057Z,220.58
2023-05-11T14:25:41.793Z,223.24
2023-05-11T14:26:41.800Z,213.05
2023-05-11T14:27:42.059Z,198.15
2023-05-11T14:28:41.871Z,208.60
2023-05-11T14:29:44.201Z,214.23
2023-05-11T14:30:41.968Z,221.40
2023-05-11T14:31:41.946Z,220.54
2023-05-11T14:32:41.998Z,225.60
2023-05-11T14:33:41.984Z,223.13
2023-05-11T14:34:42.003Z,221.26
2023-05-11T14:35:42.037Z,291.65
2023-05-11T14:36:42.042Z,353.27
2023-05-11T14:37:42.559Z,298.10
2023-05-11T14:38:42.095Z,251.34
2023-05-11T14:39:42.140Z,247.65
2023-05-11T14:40:42.114Z,236.65
2023-05-11T14:41:42.146Z,246.31
2023-05-11T14:42:42.171Z,241.38
2023-05-11T14:43:42.173Z,246.54
2023-05-11T14:44:42.177Z,241.34
2023-05-11T14:45:42.233Z,233.86
2023-05-11T14:46:42.374Z,229.03
2023-05-11T14:47:42.327Z,228.09
2023-05-11T14:48:42.288Z,236.24
2023-05-11T14:49:42.319Z,233.40
2023-05-11T14:50:42.350Z,219.61
2023-05-11T14:51:42.395Z,219.29
2023-05-11T14:52:42.427Z,221.03
2023-05-11T14:53:42.945Z,211.42
2023-05-11T14:54:43.056Z,206.19
2023-05-11T14:55:42.522Z,189.55
2023-05-11T14:56:42.548Z,182.82
2023-05-11T14:57:42.566Z,191.89
2023-05-11T14:58:42.599Z,202.74
2023-05-11T14:59:55.226Z,208.80
2023-05-11T15:00:42.649Z,209.08
2023-05-11T15:01:43.179Z,211.13
2023-05-11T15:02:42.756Z,212.22
2023-05-11T15:03:42.760Z,216.21
2023-05-11T15:04:42.762Z,213.98
2023-05-11T15:05:42.802Z,217.39
2023-05-11T15:06:42.833Z,234.48
2023-05-11T15:07:42.869Z,245.87
2023-05-11T15:08:42.909Z,250.41
2023-05-11T15:09:42.931Z,247.27
2023-05-11T15:10:42.960Z,231.29
2023-05-11T15:11:43.012Z,229.54
2023-05-11T15:12:43.077Z,223.63
2023-05-11T15:13:43.113Z,233.60
2023-05-11T15:14:43.151Z,229.53
2023-05-11T15:15:43.182Z,234.27
2023-05-11T15:18:12.625Z,25.00
2023-05-11T15:19:03.008Z,25.00
2023-05-11T15:20:02.962Z,25.00
2023-05-11T15:21:02.981Z,25.00
2023-05-11T15:22:02.953Z,25.00
2023-05-11T15:23:02.958Z,25.00
2023-05-11T15:24:02.962Z,0.00
2023-05-11T15:25:02.944Z,0.00
2023-05-11T15:26:02.937Z,19.33
2023-05-11T15:27:02.914Z,22.77
2023-05-11T15:28:02.915Z,50.60
2023-05-11T15:29:03.342Z,44.50
2023-05-11T15:30:02.925Z,116.99
2023-05-11T15:31:02.899Z,83.63
2023-05-11T15:32:03.046Z,103.04
2023-05-11T15:33:02.944Z,176.47
2023-05-11T15:34:03.036Z,121.98
2023-05-11T15:35:02.945Z,56.08
2023-05-11T15:36:02.956Z,0.00
2023-05-11T15:37:02.937Z,17.17
2023-05-11T15:38:02.961Z,92.97
2023-05-11T15:39:02.976Z,125.79
2023-05-11T15:40:02.991Z,135.94
2023-05-11T15:41:03.059Z,143.52
2023-05-11T15:42:03.132Z,164.28
2023-05-11T15:43:03.144Z,158.17
2023-05-11T15:44:03.192Z,121.89
2023-05-11T15:45:03.206Z,112.20
2023-05-11T15:46:03.265Z,134.53
2023-05-11T15:47:03.228Z,128.30
2023-05-11T15:48:03.271Z,96.61
2023-05-11T15:49:03.253Z,131.12
2023-05-11T15:50:03.277Z,77.78
2023-05-11T15:51:03.283Z,25.00
2023-05-11T15:52:03.321Z,0.00
2023-05-11T15:53:03.328Z,0.00
2023-05-11T15:54:03.842Z,25.37
2023-05-11T15:55:03.397Z,35.32
2023-05-11T15:56:03.454Z,69.13
2023-05-11T15:57:03.507Z,85.04
2023-05-11T15:58:03.528Z,165.56
2023-05-11T15:59:03.578Z,141.92
2023-05-11T16:00:03.646Z,146.73
2023-05-11T16:01:03.768Z,210.14
2023-05-11T16:02:03.721Z,240.51
2023-05-11T16:03:03.882Z,233.93
2023-05-11T16:04:03.844Z,250.08
2023-05-11T16:05:03.874Z,250.00
2023-05-11T16:06:03.975Z,240.54
2023-05-11T16:07:03.968Z,259.86
2023-05-11T16:08:04.031Z,270.42
2023-05-11T16:09:04.056Z,293.39
2023-05-11T16:10:04.128Z,282.25
2023-05-11T16:11:04.201Z,251.80
2023-05-11T16:12:04.216Z,231.61
2023-05-11T16:13:04.248Z,184.51
2023-05-11T16:14:04.258Z,184.73
2023-05-11T16:15:04.315Z,221.75
2023-05-11T16:16:04.384Z,245.02
2023-05-11T16:17:04.719Z,232.90
2023-05-11T16:18:05.347Z,252.89
2023-05-11T16:19:04.585Z,253.93
2023-05-11T16:20:04.553Z,210.40
2023-05-11T16:21:04.607Z,179.58
2023-05-11T16:22:04.749Z,178.32
2023-05-11T16:23:04.742Z,200.67
2023-05-11T16:24:04.759Z,206.73
2023-05-11T16:25:04.767Z,186.02
2023-05-11T16:26:04.793Z,203.17
2023-05-11T16:27:04.821Z,222.31
2023-05-11T16:28:04.860Z,219.79
2023-05-11T16:29:04.860Z,206.24
2023-05-11T16:30:17.991Z,202.25
2023-05-11T16:31:04.950Z,199.37
2023-05-11T16:32:04.852Z,184.88
2023-05-11T16:33:04.867Z,178.49
2023-05-11T16:34:04.855Z,186.89
2023-05-11T16:35:04.840Z,197.09
2023-05-11T16:36:04.820Z,211.96
2023-05-11T16:37:04.834Z,221.71
2023-05-11T16:38:04.844Z,213.05
2023-05-11T16:39:04.808Z,195.71
2023-05-11T16:40:04.810Z,220.74
2023-05-11T16:41:04.801Z,228.41
2023-05-11T16:42:04.781Z,223.50
2023-05-11T16:43:04.810Z,207.52
2023-05-11T16:44:04.753Z,208.12
2023-05-11T16:45:04.763Z,214.50
2023-05-11T16:46:04.771Z,227.76
2023-05-11T16:47:04.814Z,232.30
2023-05-11T16:48:04.740Z,218.62
2023-05-11T16:49:04.740Z,228.43
2023-05-11T16:50:04.702Z,217.26
2023-05-11T16:51:04.692Z,213.72
2023-05-11T16:52:04.694Z,215.17
2023-05-11T16:53:04.692Z,205.28
2023-05-11T16:54:04.845Z,223.84
2023-05-11T16:55:04.686Z,242.93
2023-05-11T16:56:04.679Z,240.25
2023-05-11T16:57:04.684Z,238.56
2023-05-11T16:58:04.685Z,248.18
2023-05-11T16:59:04.681Z,249.03
2023-05-11T17:00:04.688Z,249.68
2023-05-11T17:01:04.655Z,239.91
2023-05-11T17:02:04.746Z,208.82
2023-05-11T17:03:04.792Z,202.64
2023-05-11T17:04:04.733Z,184.47
2023-05-11T17:05:04.763Z,183.36
2023-05-11T17:06:04.811Z,179.73
2023-05-11T17:07:04.864Z,180.03
2023-05-11T17:08:04.895Z,174.49
2023-05-11T17:09:04.955Z,165.63
2023-05-11T17:10:05.006Z,150.14
2023-05-11T17:11:05.033Z,145.34
2023-05-11T17:12:05.088Z,139.70
2023-05-11T17:13:05.121Z,147.15
2023-05-11T17:14:05.173Z,167.05
2023-05-11T17:15:05.157Z,173.24
2023-05-11T17:16:05.187Z,170.64
2023-05-11T17:17:05.179Z,184.07
2023-05-11T17:18:05.305Z,185.29
2023-05-11T17:19:05.356Z,193.18
2023-05-11T17:20:05.363Z,184.35
2023-05-11T17:21:05.400Z,203.85
2023-05-11T17:22:05.431Z,211.00
2023-05-11T17:23:05.457Z,221.20
2023-05-11T17:24:05.509Z,207.34
2023-05-11T17:25:05.496Z,204.89
2023-05-11T17:26:05.542Z,192.62
2023-05-11T17:27:05.535Z,192.71
2023-05-11T17:28:05.565Z,186.62
2023-05-11T17:29:05.588Z,164.41
2023-05-11T17:30:05.634Z,163.24
2023-05-11T17:31:05.734Z,164.84
2023-05-11T17:32:05.998Z,175.59
2023-05-11T17:33:06.185Z,207.23
2023-05-11T17:34:05.913Z,184.49
2023-05-11T17:35:05.784Z,163.60
2023-05-11T17:36:05.820Z,150.77
2023-05-11T17:37:05.827Z,162.93
2023-05-11T17:38:05.863Z,152.63
2023-05-11T17:39:05.874Z,151.44
2023-05-11T17:40:05.888Z,147.28
2023-05-11T17:41:05.896Z,156.41
2023-05-11T17:42:05.986Z,155.21
2023-05-11T17:43:05.955Z,155.70
2023-05-11T17:44:06.025Z,167.62
2023-05-11T17:45:06.052Z,182.19
2023-05-11T17:46:06.192Z,183.91
2023-05-11T17:47:06.154Z,208.25
2023-05-11T17:48:06.217Z,215.52
2023-05-11T17:49:06.241Z,221.64
2023-05-11T17:50:06.282Z,227.67
2023-05-11T17:51:06.310Z,189.42
2023-05-11T17:52:06.355Z,170.26
2023-05-11T17:53:06.372Z,164.08
2023-05-11T17:54:06.424Z,170.68
2023-05-11T17:55:06.412Z,179.19
2023-05-11T17:56:06.419Z,201.34
2023-05-11T17:57:06.460Z,210.39
2023-05-11T17:58:06.523Z,206.46
2023-05-11T17:59:06.549Z,198.92
2023-05-11T18:00:06.601Z,190.23
2023-05-11T18:01:06.670Z,206.43
2023-05-11T18:02:06.651Z,229.41
2023-05-11T18:03:06.790Z,256.65
2023-05-11T18:04:06.792Z,268.00
2023-05-11T18:05:06.758Z,264.92
2023-05-11T18:06:06.769Z,250.00
2023-05-11T18:07:06.832Z,249.17
2023-05-11T18:08:08.398Z,227.89
2023-05-11T18:09:06.867Z,242.78
2023-05-11T18:10:06.874Z,249.37
2023-05-11T18:11:06.844Z,250.00